Time;durP1;ratioP1;P1;durP2;ratioP2;P2;SDS_P1;SDS_P2;PMS_P1;PMS_P2;Temp;Humidity;BMP_temperature;BMP_pressure;BME280_temperature;BME280_humidity;BME280_pressure;Samples;Min_cycle;Max_cycle;Signal;HPM_P1;HPM_P2
2020/12/01 00:00:59;;;;;;;48.03;35.60;;;2.80;99.90;;;;;;5052903;28;20226;-79
2020/12/01 00:03:25;;;;;;;41.30;32.43;;;2.80;99.90;;;;;;5053951;28;20274;-79
2020/12/01 00:05:52;;;;;;;46.63;34.53;;;2.80;99.90;;;;;;5052706;28;20575;-79
2020/12/01 00:08:18;;;;;;;40.87;31.00;;;2.80;99.90;;;;;;5034109;28;20195;-78
2020/12/01 00:10:44;;;;;;;45.27;34.50;;;2.80;99.90;;;;;;5051667;28;20226;-79
2020/12/01 00:13:12;;;;;;;44.87;31.97;;;2.90;99.90;;;;;;5032991;28;20234;-78
2020/12/01 00:15:40;;;;;;;42.07;31.43;;;2.90;99.90;;;;;;5059981;28;20206;-79
2020/12/01 00:18:06;;;;;;;43.43;31.53;;;3.00;99.90;;;;;;5049342;28;20567;-79
2020/12/01 00:20:33;;;;;;;39.17;30.97;;;3.00;99.90;;;;;;5046933;28;20218;-79
2020/12/01 00:23:00;;;;;;;38.83;29.80;;;3.10;99.90;;;;;;5032428;28;20559;-77
2020/12/01 00:25:27;;;;;;;37.23;29.13;;;3.10;99.90;;;;;;5050970;28;20195;-79
2020/12/01 00:27:53;;;;;;;32.33;25.03;;;3.10;99.90;;;;;;5051223;28;20207;-78
2020/12/01 00:30:23;;;;;;;36.00;26.60;;;3.10;99.90;;;;;;5034256;28;20641;-78
2020/12/01 00:32:51;;;;;;;36.80;26.37;;;3.20;99.90;;;;;;5050467;28;20565;-79
2020/12/01 00:35:20;;;;;;;34.27;28.03;;;3.30;99.90;;;;;;5053207;28;20217;-78
2020/12/01 00:37:47;;;;;;;31.43;26.63;;;3.40;99.90;;;;;;5052184;28;20221;-79
2020/12/01 00:40:15;;;;;;;35.67;27.07;;;3.30;99.90;;;;;;5052931;28;20360;-78
2020/12/01 00:42:41;;;;;;;35.17;26.67;;;3.30;99.90;;;;;;5016124;28;20278;-80
2020/12/01 00:45:13;;;;;;;39.63;28.87;;;3.30;99.90;;;;;;5050095;28;20202;-79
2020/12/01 00:47:40;;;;;;;33.23;27.60;;;3.30;99.90;;;;;;5050661;28;20282;-79
2020/12/01 00:50:10;;;;;;;32.80;26.73;;;3.30;99.90;;;;;;5050616;28;20223;-79
2020/12/01 00:52:37;;;;;;;40.13;28.13;;;3.30;99.90;;;;;;5031658;28;20263;-79
2020/12/01 00:55:04;;;;;;;34.90;28.73;;;3.30;99.90;;;;;;5050106;28;20211;-80
2020/12/01 00:57:31;;;;;;;30.13;25.43;;;3.30;99.90;;;;;;5031329;28;20582;-81
2020/12/01 01:00:00;;;;;;;34.40;28.60;;;3.30;99.90;;;;;;5033093;28;20394;-79
2020/12/01 01:02:47;;;;;;;37.07;29.33;;;3.20;99.90;;;;;;5058163;28;20198;-80
2020/12/01 01:05:14;;;;;;;36.47;29.03;;;3.30;99.90;;;;;;5037951;28;20201;-79
2020/12/01 01:07:41;;;;;;;33.83;27.33;;;3.40;99.90;;;;;;5052951;28;20198;-80
2020/12/01 01:10:16;;;;;;;36.17;27.33;;;3.40;99.90;;;;;;5061782;28;20210;-79
2020/12/01 01:12:43;;;;;;;35.00;27.53;;;3.40;99.90;;;;;;5077601;28;20225;-80
2020/12/01 01:15:10;;;;;;;34.20;27.23;;;3.40;99.90;;;;;;5077625;28;20210;-80
2020/12/01 01:17:36;;;;;;;32.30;27.17;;;3.40;99.90;;;;;;5081885;28;20193;-79
2020/12/01 01:20:04;;;;;;;34.85;27.23;;;3.40;99.90;;;;;;5076984;28;20198;-80
2020/12/01 01:22:40;;;;;;;31.27;24.47;;;3.40;99.90;;;;;;5060272;28;20194;-80
2020/12/01 01:25:07;;;;;;;30.50;25.93;;;3.40;99.90;;;;;;5070960;28;20286;-79
2020/12/01 01:27:33;;;;;;;30.83;24.67;;;3.50;99.90;;;;;;5052718;28;20198;-79
2020/12/01 01:29:59;;;;;;;28.13;23.93;;;3.50;99.90;;;;;;5054007;28;20215;-79
2020/12/01 01:32:27;;;;;;;25.97;21.27;;;3.50;99.90;;;;;;5053461;28;20195;-79
2020/12/01 01:34:53;;;;;;;28.13;23.23;;;3.60;99.90;;;;;;5055478;28;20198;-79
2020/12/01 01:37:20;;;;;;;31.77;26.20;;;3.50;99.90;;;;;;5051030;28;20226;-79
2020/12/01 01:39:47;;;;;;;28.00;23.90;;;3.60;99.90;;;;;;5036407;28;20215;-79
2020/12/01 01:42:14;;;;;;;27.40;22.33;;;3.60;99.90;;;;;;5053800;28;20731;-80
2020/12/01 01:44:41;;;;;;;28.17;22.80;;;3.50;99.90;;;;;;5053216;28;20191;-79
2020/12/01 01:47:18;;;;;;;30.87;24.00;;;3.50;99.90;;;;;;5050631;28;20207;-79
2020/12/01 01:49:45;;;;;;;28.23;22.30;;;3.50;99.90;;;;;;5053893;28;20219;-79
2020/12/01 01:52:15;;;;;;;25.13;22.47;;;3.40;99.90;;;;;;5018974;28;20203;-79
2020/12/01 01:54:45;;;;;;;30.02;24.83;;;3.50;99.90;;;;;;5053113;28;20318;-80
2020/12/01 01:57:12;;;;;;;25.37;22.37;;;3.50;99.90;;;;;;5035552;28;20218;-79
2020/12/01 01:59:40;;;;;;;26.57;22.80;;;3.60;99.90;;;;;;5036452;28;20215;-78
2020/12/01 02:02:06;;;;;;;27.93;24.43;;;3.60;99.90;;;;;;5053461;28;20219;-79
2020/12/01 02:04:33;;;;;;;30.17;23.93;;;3.70;99.90;;;;;;5018322;28;20195;-79
2020/12/01 02:07:04;;;;;;;27.07;22.33;;;3.70;99.90;;;;;;5054213;28;20203;-79
2020/12/01 02:09:33;;;;;;;26.20;22.83;;;3.70;99.90;;;;;;5024902;28;20269;-79
2020/12/01 02:12:03;;;;;;;26.37;21.73;;;3.70;99.90;;;;;;5040685;28;20203;-79
2020/12/01 02:14:34;;;;;;;27.03;23.03;;;3.60;99.90;;;;;;5055330;28;20221;-79
2020/12/01 02:17:16;;;;;;;26.08;21.45;;;3.70;99.90;;;;;;5055823;28;20219;-79
2020/12/01 02:19:42;;;;;;;25.30;21.00;;;3.70;99.90;;;;;;5054149;28;20219;-78
2020/12/01 02:22:14;;;;;;;24.10;21.50;;;3.60;99.90;;;;;;5052458;28;20196;-77
2020/12/01 02:24:40;;;;;;;28.07;22.77;;;3.60;99.90;;;;;;5052646;28;20188;-78
2020/12/01 02:27:09;;;;;;;27.50;21.90;;;3.60;99.90;;;;;;5050975;28;20207;-79
2020/12/01 02:29:37;;;;;;;27.30;21.80;;;3.70;99.90;;;;;;5062829;28;20269;-79
2020/12/01 02:32:04;;;;;;;25.17;20.97;;;3.60;99.90;;;;;;5035560;28;20205;-79
2020/12/01 02:34:34;;;;;;;27.83;22.07;;;3.60;99.90;;;;;;5055425;28;20284;-80
2020/12/01 02:37:02;;;;;;;25.13;21.47;;;3.70;99.90;;;;;;5035329;28;20214;-79
2020/12/01 02:39:28;;;;;;;24.60;21.43;;;3.70;99.90;;;;;;5034587;28;20233;-79
2020/12/01 02:41:57;;;;;;;29.97;24.03;;;3.70;99.90;;;;;;5053003;28;20207;-79
2020/12/01 02:44:25;;;;;;;22.55;19.90;;;3.70;99.90;;;;;;5054207;28;20191;-78
2020/12/01 02:46:53;;;;;;;24.98;19.58;;;3.70;99.90;;;;;;5053850;28;20720;-78
2020/12/01 02:49:21;;;;;;;28.63;20.42;;;3.70;99.90;;;;;;5051340;28;20642;-78
2020/12/01 02:51:48;;;;;;;24.00;18.70;;;3.60;99.90;;;;;;5035952;28;20238;-79
2020/12/01 02:54:14;;;;;;;25.35;19.33;;;3.60;99.90;;;;;;5034734;28;20215;-78
2020/12/01 02:56:41;;;;;;;21.83;19.33;;;3.70;99.90;;;;;;5055617;28;20294;-78
2020/12/01 02:59:07;;;;;;;25.80;20.57;;;3.70;99.90;;;;;;5059482;28;20226;-79
2020/12/01 03:01:35;;;;;;;23.40;20.23;;;3.70;99.90;;;;;;5061260;28;20168;-80
2020/12/01 03:04:01;;;;;;;22.13;19.80;;;3.70;99.90;;;;;;5077821;28;20168;-78
2020/12/01 03:06:27;;;;;;;23.57;21.03;;;3.80;99.90;;;;;;5077426;28;20222;-80
2020/12/01 03:08:54;;;;;;;22.00;19.70;;;3.90;99.90;;;;;;5076434;28;20324;-79
2020/12/01 03:11:20;;;;;;;23.87;19.83;;;3.90;99.90;;;;;;5082744;28;20188;-80
2020/12/01 03:13:47;;;;;;;28.83;20.00;;;3.80;99.90;;;;;;5076753;28;20274;-79
2020/12/01 03:16:14;;;;;;;24.03;19.97;;;3.80;99.90;;;;;;5071517;28;20187;-78
2020/12/01 03:18:43;;;;;;;26.27;21.77;;;3.80;99.90;;;;;;5053288;28;20195;-78
2020/12/01 03:21:11;;;;;;;24.33;19.40;;;3.80;99.90;;;;;;5056889;28;20206;-78
2020/12/01 03:23:39;;;;;;;23.23;18.50;;;3.80;99.90;;;;;;5030127;28;20195;-79
2020/12/01 03:26:06;;;;;;;22.50;19.40;;;3.80;99.90;;;;;;5059675;28;20241;-78
2020/12/01 03:28:33;;;;;;;24.97;20.50;;;3.80;99.90;;;;;;5052339;28;20234;-78
2020/12/01 03:31:00;;;;;;;26.40;21.57;;;3.80;99.90;;;;;;5053017;28;20217;-78
2020/12/01 03:33:27;;;;;;;24.20;20.77;;;3.80;99.90;;;;;;5053547;28;20619;-79
2020/12/01 03:35:55;;;;;;;24.90;21.27;;;3.80;99.90;;;;;;5052989;28;20210;-77
2020/12/01 03:38:21;;;;;;;26.30;21.70;;;3.70;99.90;;;;;;5033024;28;20191;-78
2020/12/01 03:40:48;;;;;;;26.23;22.50;;;3.80;99.90;;;;;;5050151;28;20230;-78
2020/12/01 03:43:15;;;;;;;22.92;19.95;;;3.80;99.90;;;;;;5052672;28;20274;-78
2020/12/01 03:45:42;;;;;;;26.20;21.50;;;3.80;99.90;;;;;;5053568;28;20206;-78
2020/12/01 03:48:09;;;;;;;21.90;18.90;;;3.90;99.90;;;;;;5052537;28;20258;-79
2020/12/01 03:50:36;;;;;;;22.63;19.13;;;3.90;99.90;;;;;;5055900;28;20268;-77
2020/12/01 03:53:04;;;;;;;22.00;19.70;;;3.90;99.90;;;;;;5034871;28;20207;-78
2020/12/01 03:55:30;;;;;;;21.67;19.38;;;4.10;99.90;;;;;;5052610;28;20514;-79
2020/12/01 03:57:57;;;;;;;22.10;18.92;;;3.90;99.90;;;;;;5053543;28;20188;-78
2020/12/01 04:00:25;;;;;;;23.57;20.53;;;4.00;99.90;;;;;;5051360;28;20298;-79
2020/12/01 04:02:53;;;;;;;24.20;19.23;;;4.00;99.90;;;;;;5054198;28;20711;-79
2020/12/01 04:05:21;;;;;;;22.67;20.20;;;4.00;99.90;;;;;;5050880;28;20202;-78
2020/12/01 04:07:48;;;;;;;23.17;19.60;;;4.00;99.90;;;;;;5032793;28;20206;-78
2020/12/01 04:10:17;;;;;;;24.77;21.38;;;3.90;99.90;;;;;;5051148;28;20211;-78
2020/12/01 04:12:43;;;;;;;26.70;21.93;;;3.80;99.90;;;;;;5050672;28;20203;-78
2020/12/01 04:15:11;;;;;;;25.33;20.08;;;3.80;99.90;;;;;;5033932;28;20223;-78
2020/12/01 04:17:38;;;;;;;22.77;19.33;;;3.80;99.90;;;;;;5050811;28;20199;-78
2020/12/01 04:20:06;;;;;;;24.47;21.27;;;3.90;99.90;;;;;;5019312;28;20302;-78
2020/12/01 04:22:32;;;;;;;23.50;21.00;;;3.90;99.90;;;;;;5038096;28;20215;-79
2020/12/01 04:25:00;;;;;;;24.57;20.70;;;3.90;99.90;;;;;;5036255;28;20567;-78
2020/12/01 04:27:28;;;;;;;24.73;21.20;;;4.00;99.90;;;;;;5050973;28;20253;-78
2020/12/01 04:29:55;;;;;;;25.27;20.63;;;3.90;99.90;;;;;;5051055;28;20227;-79
2020/12/01 04:32:21;;;;;;;21.67;19.13;;;3.90;99.90;;;;;;5051713;28;20204;-78
2020/12/01 04:34:48;;;;;;;22.37;19.93;;;3.90;99.90;;;;;;5032712;28;20233;-78
2020/12/01 04:37:14;;;;;;;21.40;18.40;;;3.90;99.90;;;;;;5048496;28;20202;-79
2020/12/01 04:39:41;;;;;;;22.63;20.23;;;4.00;99.90;;;;;;5048686;28;20227;-78
2020/12/01 04:42:07;;;;;;;24.10;19.25;;;4.00;99.90;;;;;;5032580;28;20214;-78
2020/12/01 04:44:39;;;;;;;21.07;18.30;;;3.90;99.90;;;;;;5051634;28;20187;-78
2020/12/01 04:47:09;;;;;;;24.87;20.77;;;3.80;99.90;;;;;;5032811;28;20204;-79
2020/12/01 04:49:41;;;;;;;23.67;18.93;;;3.80;99.90;;;;;;5032760;28;20230;-79
2020/12/01 04:52:28;;;;;;;22.17;19.33;;;3.90;99.90;;;;;;5048687;28;20338;-78
2020/12/01 04:55:16;;;;;;;22.00;17.90;;;3.80;99.90;;;;;;5032919;28;20711;-79
2020/12/01 04:58:03;;;;;;;22.57;19.63;;;3.80;99.90;;;;;;5050773;28;20205;-78
2020/12/01 05:00:35;;;;;;;22.93;18.93;;;3.80;99.90;;;;;;5033228;28;20276;-79
2020/12/01 05:03:25;;;;;;;21.67;19.30;;;3.80;99.90;;;;;;5031569;28;20559;-78
2020/12/01 05:06:09;;;;;;;25.80;21.13;;;3.80;99.90;;;;;;5034521;28;20198;-79
2020/12/01 05:08:43;;;;;;;24.57;20.27;;;3.80;99.90;;;;;;5049112;28;20195;-79
2020/12/01 05:11:18;;;;;;;23.20;20.50;;;3.90;99.90;;;;;;5050382;28;20199;-78
2020/12/01 05:13:51;;;;;;;23.50;19.93;;;3.90;99.90;;;;;;5050828;28;20331;-79
2020/12/01 05:16:29;;;;;;;22.13;19.25;;;3.80;99.90;;;;;;5018194;28;20736;-79
2020/12/01 05:18:56;;;;;;;22.63;19.23;;;3.80;99.90;;;;;;5031631;28;20205;-78
2020/12/01 05:21:26;;;;;;;23.23;19.27;;;3.80;99.90;;;;;;5032059;28;20203;-78
2020/12/01 05:23:53;;;;;;;25.87;20.40;;;3.90;99.90;;;;;;5033109;28;20199;-79
2020/12/01 05:26:22;;;;;;;21.85;18.30;;;3.90;99.90;;;;;;5053572;28;20314;-78
2020/12/01 05:28:51;;;;;;;21.73;19.47;;;3.90;99.90;;;;;;5031894;28;20191;-78
2020/12/01 05:31:20;;;;;;;22.40;18.33;;;3.90;99.90;;;;;;5050124;28;20230;-78
2020/12/01 05:34:00;;;;;;;20.70;18.50;;;3.90;99.90;;;;;;5031679;28;20560;-78
2020/12/01 05:36:30;;;;;;;22.03;19.13;;;3.80;99.90;;;;;;5049429;28;20207;-77
2020/12/01 05:39:00;;;;;;;22.03;19.13;;;3.90;99.90;;;;;;5048434;28;20200;-77
2020/12/01 05:41:29;;;;;;;21.23;18.35;;;3.90;99.90;;;;;;5048080;28;20195;-78
2020/12/01 05:43:58;;;;;;;23.50;19.53;;;3.90;99.90;;;;;;5031537;28;20703;-78
2020/12/01 05:46:33;;;;;;;22.17;19.50;;;3.90;99.90;;;;;;5048766;28;20210;-78
2020/12/01 05:49:18;;;;;;;21.73;18.97;;;3.90;99.90;;;;;;5030480;28;20253;-79
2020/12/01 05:51:47;;;;;;;25.27;21.17;;;3.90;99.90;;;;;;5048097;28;20209;-78
2020/12/01 05:54:16;;;;;;;24.23;21.63;;;3.90;99.90;;;;;;5050678;28;20223;-78
2020/12/01 05:56:51;;;;;;;21.73;19.50;;;3.90;99.90;;;;;;5034912;28;20196;-78
2020/12/01 05:59:20;;;;;;;22.30;19.33;;;3.90;99.90;;;;;;5052669;28;20305;-78
2020/12/01 06:01:50;;;;;;;27.77;22.17;;;3.90;99.90;;;;;;5053479;28;20286;-79
2020/12/01 06:04:19;;;;;;;23.13;19.90;;;3.90;99.90;;;;;;5053459;28;20187;-78
2020/12/01 06:06:59;;;;;;;21.53;17.77;;;4.00;99.90;;;;;;5034849;28;20294;-78
2020/12/01 06:09:40;;;;;;;19.93;16.73;;;4.00;99.90;;;;;;5051816;28;20782;-78
2020/12/01 06:12:17;;;;;;;20.23;18.07;;;4.00;99.90;;;;;;5034686;28;20199;-78
2020/12/01 06:14:48;;;;;;;21.37;17.20;;;3.90;99.90;;;;;;5035519;28;20215;-78
2020/12/01 06:17:20;;;;;;;21.90;18.67;;;3.90;99.90;;;;;;5033869;28;20203;-78
2020/12/01 06:19:53;;;;;;;20.57;18.27;;;3.90;99.90;;;;;;5052653;28;20296;-79
2020/12/01 06:22:43;;;;;;;23.70;19.00;;;4.00;99.90;;;;;;5054234;28;20203;-78
2020/12/01 06:25:35;;;;;;;19.77;17.27;;;4.00;99.90;;;;;;5049631;28;20274;-77
2020/12/01 06:28:35;;;;;;;20.10;18.00;;;4.00;99.90;;;;;;5050462;28;20705;-78
2020/12/01 06:31:21;;;;;;;20.30;18.10;;;4.00;99.90;;;;;;5052485;28;20223;-78
2020/12/01 06:34:17;;;;;;;18.37;16.30;;;4.10;99.90;;;;;;5035723;28;20211;-78
2020/12/01 06:37:07;;;;;;;19.70;17.60;;;4.00;99.90;;;;;;5017525;28;20221;-78
2020/12/01 06:39:45;;;;;;;19.98;16.63;;;4.00;99.90;;;;;;5051571;28;20636;-78
2020/12/01 06:42:18;;;;;;;20.30;18.15;;;4.00;99.90;;;;;;5053312;28;20195;-78
2020/12/01 06:44:52;;;;;;;18.90;16.73;;;4.00;99.90;;;;;;5037332;28;20215;-78
2020/12/01 06:47:23;;;;;;;18.67;16.03;;;4.10;99.90;;;;;;5061581;28;20290;-79
2020/12/01 06:49:54;;;;;;;18.57;16.50;;;4.10;99.90;;;;;;5058924;28;20219;-78
2020/12/01 06:52:21;;;;;;;19.92;17.83;;;4.10;99.90;;;;;;5059466;28;20207;-78
2020/12/01 06:54:50;;;;;;;17.83;14.95;;;4.10;99.90;;;;;;5054140;28;20266;-78
2020/12/01 06:57:26;;;;;;;18.30;16.40;;;4.20;99.90;;;;;;5034970;28;20199;-78
2020/12/01 06:59:53;;;;;;;18.57;16.43;;;4.20;99.90;;;;;;5034557;28;20534;-79
2020/12/01 07:02:30;;;;;;;19.60;17.70;;;4.20;99.90;;;;;;5018089;28;20191;-79
2020/12/01 07:05:13;;;;;;;20.47;16.90;;;4.20;99.90;;;;;;5020085;28;20187;-77
2020/12/01 07:07:42;;;;;;;20.10;17.97;;;4.10;99.90;;;;;;5057456;28;20203;-78
2020/12/01 07:10:25;;;;;;;19.50;17.40;;;4.10;99.90;;;;;;5056579;28;20226;-78
2020/12/01 07:13:05;;;;;;;18.70;16.47;;;4.10;99.90;;;;;;5052104;28;20203;-78
2020/12/01 07:15:39;;;;;;;22.43;18.43;;;4.10;99.90;;;;;;5052317;28;20207;-78
2020/12/01 07:18:22;;;;;;;22.57;18.60;;;4.10;99.90;;;;;;5034024;28;20202;-78
2020/12/01 07:21:12;;;;;;;21.93;19.63;;;4.10;99.90;;;;;;5053301;28;20235;-78
2020/12/01 07:23:50;;;;;;;21.17;18.87;;;3.90;99.90;;;;;;5072249;28;20168;-78
2020/12/01 07:26:22;;;;;;;21.93;18.03;;;3.80;99.90;;;;;;5078959;28;20183;-79
2020/12/01 07:29:07;;;;;;;21.57;18.93;;;3.70;99.90;;;;;;5071262;28;20175;-79
2020/12/01 07:31:36;;;;;;;26.80;20.10;;;3.70;99.90;;;;;;5075323;28;20183;-79
2020/12/01 07:34:06;;;;;;;25.93;20.00;;;3.80;99.90;;;;;;5075161;28;20277;-80
2020/12/01 07:36:37;;;;;;;25.83;20.30;;;3.70;99.90;;;;;;5075041;28;20198;-79
2020/12/01 07:39:17;;;;;;;24.53;21.27;;;3.60;99.90;;;;;;5071868;28;20218;-78
2020/12/01 07:41:49;;;;;;;26.00;21.37;;;3.50;99.90;;;;;;5051997;28;20191;-78
2020/12/01 07:44:18;;;;;;;28.20;20.40;;;3.40;99.90;;;;;;5033710;28;20199;-78
2020/12/01 07:46:53;;;;;;;30.37;22.47;;;3.50;99.90;;;;;;5035323;28;20266;-79
2020/12/01 07:49:22;;;;;;;29.23;23.38;;;3.40;99.90;;;;;;5033725;28;20239;-79
2020/12/01 07:51:53;;;;;;;25.40;20.83;;;3.40;99.90;;;;;;5050800;28;20295;-78
2020/12/01 07:54:22;;;;;;;26.57;23.00;;;3.50;99.90;;;;;;5051640;28;20222;-79
2020/12/01 07:56:49;;;;;;;33.13;22.90;;;3.50;99.90;;;;;;5034085;28;20191;-79
2020/12/01 07:59:16;;;;;;;30.70;22.40;;;3.50;99.90;;;;;;5039735;28;20207;-79
2020/12/01 08:01:44;;;;;;;30.07;24.43;;;3.50;99.90;;;;;;5058436;28;20191;-79
2020/12/01 08:04:15;;;;;;;33.90;25.50;;;3.50;99.90;;;;;;5042123;28;20242;-80
2020/12/01 08:06:43;;;;;;;28.67;23.63;;;3.50;99.90;;;;;;5055660;28;20211;-79
2020/12/01 08:09:12;;;;;;;28.63;22.07;;;3.40;99.90;;;;;;5053137;28;20207;-80
2020/12/01 08:11:41;;;;;;;27.50;20.73;;;3.30;99.90;;;;;;5035279;28;20223;-78
2020/12/01 08:14:08;;;;;;;31.10;24.63;;;3.40;99.90;;;;;;5036466;28;20222;-79
2020/12/01 08:16:35;;;;;;;27.97;23.93;;;3.50;99.90;;;;;;5062622;28;20257;-80
2020/12/01 08:19:04;;;;;;;29.50;25.03;;;3.40;99.90;;;;;;5058184;28;20235;-80
2020/12/01 08:21:35;;;;;;;29.77;23.83;;;3.50;99.90;;;;;;5055134;28;20203;-79
2020/12/01 08:24:07;;;;;;;27.87;21.50;;;3.40;99.90;;;;;;5055258;28;20666;-80
2020/12/01 08:26:35;;;;;;;27.50;23.27;;;3.40;99.90;;;;;;5036981;28;20191;-80
2020/12/01 08:29:07;;;;;;;28.27;23.73;;;3.30;99.90;;;;;;5037330;28;20259;-80
2020/12/01 08:31:44;;;;;;;30.10;22.43;;;3.30;99.90;;;;;;5055042;28;20195;-80
2020/12/01 08:34:33;;;;;;;29.77;23.17;;;3.40;99.90;;;;;;5037242;28;20770;-79
2020/12/01 08:37:20;;;;;;;31.50;24.30;;;3.30;99.90;;;;;;5035153;28;20201;-80
2020/12/01 08:39:58;;;;;;;28.40;21.23;;;3.40;99.90;;;;;;5024361;28;20237;-80
2020/12/01 08:42:42;;;;;;;28.03;21.80;;;3.40;99.90;;;;;;5053753;28;20286;-80
2020/12/01 08:45:42;;;;;;;28.83;23.47;;;3.50;99.90;;;;;;5055338;28;20199;-80
2020/12/01 08:48:22;;;;;;;27.13;22.87;;;3.50;99.90;;;;;;5034456;28;20552;-81
2020/12/01 08:51:00;;;;;;;28.50;23.83;;;3.50;99.90;;;;;;5054628;28;20592;-81
2020/12/01 08:53:28;;;;;;;28.37;23.13;;;3.50;99.90;;;;;;5019192;28;20252;-81
2020/12/01 08:55:59;;;;;;;34.53;24.25;;;3.50;99.90;;;;;;5053849;28;20199;-80
2020/12/01 08:58:36;;;;;;;34.33;25.58;;;3.40;99.90;;;;;;5055180;28;20194;-81
2020/12/01 09:01:04;;;;;;;27.20;23.00;;;3.40;99.90;;;;;;5054600;28;20218;-80
2020/12/01 09:03:34;;;;;;;31.75;24.23;;;3.50;99.90;;;;;;5053635;28;20191;-80
2020/12/01 09:06:02;;;;;;;31.80;25.23;;;3.50;99.90;;;;;;5034258;28;20211;-81
2020/12/01 09:08:42;;;;;;;35.10;25.57;;;3.50;99.90;;;;;;5053088;28;20199;-81
2020/12/01 09:14:06;;;;;;;34.30;25.43;;;3.60;99.90;;;;;;5054463;28;20211;-80
2020/12/01 09:16:44;;;;;;;30.97;23.03;;;3.60;99.90;;;;;;5054895;28;20232;-80
2020/12/01 09:19:33;;;;;;;31.10;23.50;;;3.70;99.90;;;;;;5052172;28;20245;-80
2020/12/01 09:22:07;;;;;;;31.90;23.63;;;3.70;99.90;;;;;;5055503;28;20219;-80
2020/12/01 09:24:33;;;;;;;31.93;24.90;;;3.70;99.90;;;;;;5053197;28;20187;-80
2020/12/01 09:27:02;;;;;;;31.23;24.97;;;3.70;99.90;;;;;;5061866;28;20200;-82
2020/12/01 09:29:29;;;;;;;33.53;24.53;;;3.80;99.90;;;;;;5055270;28;20219;-81
2020/12/01 09:31:56;;;;;;;33.63;23.27;;;3.80;99.90;;;;;;5022916;28;20221;-80
2020/12/01 09:34:24;;;;;;;30.40;23.83;;;3.90;99.90;;;;;;5056742;28;20218;-81
2020/12/01 09:36:56;;;;;;;33.63;24.13;;;4.00;99.90;;;;;;5057360;28;20211;-80
2020/12/01 09:39:23;;;;;;;31.33;22.27;;;4.10;99.90;;;;;;5055730;28;20223;-80
2020/12/01 09:41:59;;;;;;;32.57;23.33;;;4.30;99.90;;;;;;5056775;28;20623;-80
2020/12/01 09:44:44;;;;;;;30.07;21.30;;;4.30;99.90;;;;;;5056357;28;20191;-81
2020/12/01 09:47:15;;;;;;;29.20;21.90;;;4.30;99.90;;;;;;5056319;28;20278;-81
2020/12/01 09:49:42;;;;;;;27.60;20.80;;;4.40;99.90;;;;;;5056485;28;20234;-80
2020/12/01 09:52:13;;;;;;;27.17;19.73;;;4.40;99.90;;;;;;5039314;28;20211;-80
2020/12/01 09:54:44;;;;;;;25.17;20.13;;;4.40;99.90;;;;;;5057851;28;20256;-80
2020/12/01 09:57:15;;;;;;;22.27;18.40;;;4.40;99.90;;;;;;5058426;28;20262;-81
2020/12/01 09:59:51;;;;;;;23.42;19.55;;;4.40;99.90;;;;;;5056856;28;20709;-81
2020/12/01 10:05:58;;;;;;;27.87;21.03;;;4.50;99.90;;;;;;5061826;28;20205;-80
2020/12/01 10:08:24;;;;;;;25.13;19.17;;;4.50;99.90;;;;;;5039776;28;20198;-81
2020/12/01 10:11:27;;;;;;;26.23;19.70;;;4.40;99.90;;;;;;5040077;28;20211;-80
2020/12/01 10:14:00;;;;;;;26.00;20.90;;;4.40;99.90;;;;;;5038617;28;20211;-81
2020/12/01 10:35:48;;;;;;;26.73;22.17;;;4.20;99.90;;;;;;5040890;28;20227;-81
2020/12/01 10:38:17;;;;;;;28.20;21.57;;;4.20;99.90;;;;;;5059356;28;20263;-81
2020/12/01 10:40:44;;;;;;;27.73;21.67;;;4.20;99.90;;;;;;5039045;28;20214;-83
2020/12/01 10:43:12;;;;;;;25.40;21.77;;;4.20;99.90;;;;;;5039887;28;20207;-81
2020/12/01 10:45:39;;;;;;;31.63;22.67;;;4.20;99.90;;;;;;5063272;28;20271;-80
2020/12/01 10:48:05;;;;;;;28.60;21.80;;;4.20;99.90;;;;;;5057817;28;20735;-82
2020/12/01 10:50:35;;;;;;;31.17;23.03;;;4.30;99.90;;;;;;5058317;28;20227;-82
2020/12/01 10:53:01;;;;;;;34.23;23.80;;;4.30;99.90;;;;;;5059281;28;20663;-82
2020/12/01 10:55:31;;;;;;;25.90;21.43;;;4.30;99.90;;;;;;5041015;28;20691;-82
2020/12/01 10:57:58;;;;;;;29.27;22.47;;;4.20;99.90;;;;;;5057777;28;20215;-81
2020/12/01 11:00:30;;;;;;;29.50;21.70;;;4.20;99.90;;;;;;5058759;28;20298;-82
2020/12/01 11:02:58;;;;;;;28.83;23.60;;;4.00;99.90;;;;;;5041576;28;20210;-82
2020/12/01 11:05:27;;;;;;;28.83;21.27;;;4.00;99.90;;;;;;5042376;28;20257;-81
2020/12/01 11:07:54;;;;;;;30.53;23.73;;;4.10;99.90;;;;;;5056607;28;20234;-82
2020/12/01 11:10:21;;;;;;;26.73;21.37;;;4.20;99.90;;;;;;5041253;28;20211;-82
2020/12/01 11:12:49;;;;;;;31.07;22.90;;;4.20;99.90;;;;;;5058935;28;20199;-81
2020/12/01 11:15:17;;;;;;;32.92;22.63;;;4.10;99.90;;;;;;5060700;28;20234;-81
2020/12/01 11:17:44;;;;;;;29.47;22.50;;;4.30;99.90;;;;;;5042089;28;20191;-81
2020/12/01 11:20:14;;;;;;;28.83;21.77;;;4.10;99.90;;;;;;5059188;28;20227;-81
2020/12/01 11:22:41;;;;;;;28.83;20.50;;;4.10;99.90;;;;;;5043130;28;20191;-81
2020/12/01 11:25:07;;;;;;;29.43;23.37;;;4.10;99.90;;;;;;5031332;28;20219;-81
2020/12/01 11:27:34;;;;;;;28.50;20.70;;;4.10;99.90;;;;;;5057317;28;20195;-81
2020/12/01 11:30:01;;;;;;;26.63;20.27;;;4.00;99.90;;;;;;5055862;28;20242;-81
2020/12/01 11:32:28;;;;;;;26.67;21.27;;;4.00;99.90;;;;;;5073365;28;20659;-81
2020/12/01 11:34:54;;;;;;;23.48;18.33;;;4.10;99.90;;;;;;5056940;28;20302;-81
2020/12/01 11:37:21;;;;;;;28.73;21.13;;;4.20;99.90;;;;;;5055568;28;20278;-81
2020/12/01 11:39:47;;;;;;;29.33;20.87;;;4.10;99.90;;;;;;5038060;28;20272;-83
2020/12/01 11:42:14;;;;;;;26.80;20.53;;;4.10;99.90;;;;;;5056674;28;20689;-82
2020/12/01 11:44:40;;;;;;;30.23;21.93;;;4.10;99.90;;;;;;5056126;28;20194;-81
2020/12/01 11:47:08;;;;;;;26.80;21.43;;;4.00;99.90;;;;;;5053125;28;20194;-84
2020/12/01 11:49:36;;;;;;;26.90;20.23;;;4.10;99.90;;;;;;5051013;28;20216;-83
2020/12/01 11:52:03;;;;;;;28.50;19.97;;;4.10;99.90;;;;;;5075151;28;20199;-83
2020/12/01 11:54:29;;;;;;;27.93;20.43;;;4.00;99.90;;;;;;5075324;28;20222;-83
2020/12/01 11:56:56;;;;;;;25.50;19.17;;;4.10;99.90;;;;;;5075432;28;20205;-82
2020/12/01 11:59:22;;;;;;;27.40;20.90;;;4.10;99.90;;;;;;5057871;28;20266;-83
2020/12/01 12:01:49;;;;;;;24.20;19.10;;;4.10;99.90;;;;;;5075419;28;20191;-85
2020/12/01 12:04:16;;;;;;;24.67;20.43;;;4.00;99.90;;;;;;5058994;28;20195;-83
2020/12/01 12:06:43;;;;;;;27.13;18.93;;;4.00;99.90;;;;;;5057968;28;20229;-84
2020/12/01 12:09:11;;;;;;;26.60;19.70;;;4.00;99.90;;;;;;5039752;28;20246;-85
2020/12/01 12:11:37;;;;;;;25.37;17.77;;;4.00;99.90;;;;;;5062541;28;20265;-85
2020/12/01 12:14:04;;;;;;;26.63;20.60;;;3.90;99.90;;;;;;5058163;28;20623;-81
2020/12/01 12:16:31;;;;;;;26.00;19.93;;;4.00;99.90;;;;;;5039544;28;20199;-82
2020/12/01 12:18:58;;;;;;;25.83;21.03;;;3.90;99.90;;;;;;5057031;28;20221;-82
2020/12/01 12:21:26;;;;;;;25.42;20.15;;;3.90;99.90;;;;;;5057097;28;20195;-80
2020/12/01 12:23:53;;;;;;;27.70;20.50;;;3.90;99.90;;;;;;5055624;28;20209;-81
2020/12/01 12:26:19;;;;;;;25.27;20.30;;;4.00;99.90;;;;;;5057801;28;20218;-81
2020/12/01 12:28:46;;;;;;;22.88;19.65;;;4.10;99.90;;;;;;5057228;28;20263;-81
2020/12/01 12:31:14;;;;;;;23.97;19.23;;;4.10;99.90;;;;;;5058814;28;20261;-82
2020/12/01 12:33:41;;;;;;;27.40;20.57;;;4.20;99.90;;;;;;5057592;28;20202;-80
2020/12/01 12:36:08;;;;;;;24.00;19.07;;;4.20;99.90;;;;;;5058711;28;20261;-81
2020/12/01 12:38:35;;;;;;;24.03;18.57;;;4.20;99.90;;;;;;5057508;28;20202;-82
2020/12/01 12:41:02;;;;;;;24.47;17.57;;;4.30;99.90;;;;;;5038018;28;20715;-81
2020/12/01 12:43:29;;;;;;;21.10;16.73;;;4.30;99.90;;;;;;5056342;28;20245;-80
2020/12/01 12:45:56;;;;;;;23.67;18.80;;;4.20;99.90;;;;;;5021203;28;20218;-79
2020/12/01 12:48:24;;;;;;;21.97;17.57;;;4.20;99.90;;;;;;5052983;28;20675;-79
2020/12/01 12:50:51;;;;;;;20.87;17.77;;;4.30;99.90;;;;;;5054650;28;20408;-82
2020/12/01 12:53:17;;;;;;;21.30;16.47;;;4.40;99.90;;;;;;5031875;28;20210;-80
2020/12/01 12:55:45;;;;;;;20.07;16.93;;;4.40;99.90;;;;;;5049251;28;20261;-80
2020/12/01 12:58:12;;;;;;;20.80;15.83;;;4.40;99.90;;;;;;5034758;28;20195;-79
2020/12/01 13:00:38;;;;;;;17.57;15.53;;;4.60;99.90;;;;;;5054205;28;20223;-80
2020/12/01 13:03:05;;;;;;;15.43;13.70;;;4.80;99.90;;;;;;5036057;28;20202;-79
2020/12/01 13:05:32;;;;;;;20.03;14.37;;;4.80;99.90;;;;;;5035345;28;20199;-79
2020/12/01 13:07:59;;;;;;;17.70;13.60;;;4.70;99.90;;;;;;5051923;28;20206;-79
2020/12/01 13:10:26;;;;;;;17.90;14.50;;;4.90;99.90;;;;;;5033771;28;20249;-80
2020/12/01 13:12:54;;;;;;;16.25;13.00;;;4.80;99.90;;;;;;5053904;28;20200;-80
2020/12/01 13:15:21;;;;;;;16.73;13.03;;;4.80;99.90;;;;;;5019610;28;20215;-80
2020/12/01 13:17:48;;;;;;;15.35;13.48;;;4.90;99.90;;;;;;5018006;28;20214;-79